Time;durP1;ratioP1;P1;durP2;ratioP2;P2;SDS_P1;SDS_P2;PMS_P1;PMS_P2;Temp;Humidity;BMP_temperature;BMP_pressure;BME280_temperature;BME280_humidity;BME280_pressure;Samples;Min_cycle;Max_cycle;Signal;HPM_P1;HPM_P2
2022/10/14 00:00:52;;;;;;;15.25;12.68;;;;;;;;;;5031047;28;20013;-74
2022/10/14 00:03:17;;;;;;;18.10;12.65;;;;;;;;;;5013590;28;20807;-74
2022/10/14 00:05:43;;;;;;;18.77;12.07;;;;;;;;;;5014358;28;20035;-74
2022/10/14 00:08:08;;;;;;;17.90;12.57;;;;;;;;;;5029294;28;20271;-74
2022/10/14 00:10:35;;;;;;;19.67;14.18;;;;;;;;;;5000925;28;20878;-77
2022/10/14 00:13:00;;;;;;;18.98;13.05;;;;;;;;;;5030254;28;20017;-77
2022/10/14 00:15:26;;;;;;;13.75;11.55;;;;;;;;;;5030485;28;20013;-75
2022/10/14 00:17:51;;;;;;;17.98;13.43;;;;;;;;;;5012255;28;20020;-77
2022/10/14 00:20:16;;;;;;;14.40;12.73;;;;;;;;;;5031470;28;20905;-77
2022/10/14 00:22:41;;;;;;;18.05;13.63;;;;;;;;;;5036084;28;20993;-73
2022/10/14 00:25:07;;;;;;;18.35;13.82;;;;;;;;;;5017829;28;20280;-73
2022/10/14 00:27:32;;;;;;;17.85;13.52;;;;;;;;;;5030799;28;20027;-73
2022/10/14 00:29:57;;;;;;;22.77;13.77;;;;;;;;;;5030055;28;20032;-74
2022/10/14 00:32:23;;;;;;;17.38;13.93;;;;;;;;;;5029944;28;20074;-73
2022/10/14 00:34:48;;;;;;;20.10;13.88;;;;;;;;;;5032074;28;20874;-73
2022/10/14 00:37:13;;;;;;;17.53;14.50;;;;;;;;;;5030191;28;20048;-74
2022/10/14 00:39:38;;;;;;;14.95;12.95;;;;;;;;;;5027670;28;20477;-75
2022/10/14 00:42:04;;;;;;;21.73;14.38;;;;;;;;;;5041048;28;20078;-75
2022/10/14 00:44:29;;;;;;;17.48;14.57;;;;;;;;;;5017001;28;20016;-75
2022/10/14 00:46:54;;;;;;;16.80;13.50;;;;;;;;;;5037533;28;20171;-75
2022/10/14 00:49:39;;;;;;;15.50;13.32;;;;;;;;;;5011692;28;20328;-75
2022/10/14 00:52:15;;;;;;;17.98;13.48;;;;;;;;;;5012819;28;20067;-75
2022/10/14 00:54:47;;;;;;;18.95;13.57;;;;;;;;;;5014599;28;20842;-75
2022/10/14 00:57:13;;;;;;;15.60;13.98;;;;;;;;;;5036377;28;20052;-74
2022/10/14 00:59:38;;;;;;;16.00;13.15;;;;;;;;;;5025003;28;20024;-73
2022/10/14 01:02:03;;;;;;;22.92;16.02;;;;;;;;;;5029142;28;20029;-73
2022/10/14 01:04:29;;;;;;;17.70;14.10;;;;;;;;;;5013382;28;20036;-73
2022/10/14 01:06:54;;;;;;;16.27;13.45;;;;;;;;;;5028907;28;20370;-73
2022/10/14 01:09:28;;;;;;;15.20;13.63;;;;;;;;;;5031881;28;20026;-73
2022/10/14 01:11:59;;;;;;;17.17;14.50;;;;;;;;;;5033394;28;20028;-72
2022/10/14 01:14:44;;;;;;;18.85;14.10;;;;;;;;;;5032861;28;20046;-73
2022/10/14 01:17:13;;;;;;;17.92;14.05;;;;;;;;;;5032299;28;20029;-74
2022/10/14 01:19:41;;;;;;;16.50;12.85;;;;;;;;;;5034454;28;20012;-74
2022/10/14 01:22:16;;;;;;;17.77;13.32;;;;;;;;;;5015766;28;20024;-74
2022/10/14 01:24:47;;;;;;;19.30;13.10;;;;;;;;;;5033122;28;20123;-73
2022/10/14 01:27:22;;;;;;;13.90;11.95;;;;;;;;;;5016359;28;20889;-73
2022/10/14 01:30:01;;;;;;;20.65;13.30;;;;;;;;;;5002785;28;20056;-73
2022/10/14 01:32:48;;;;;;;16.77;12.52;;;;;;;;;;5034020;28;20023;-74
2022/10/14 01:35:23;;;;;;;16.23;11.68;;;;;;;;;;5033591;28;20889;-74
2022/10/14 01:37:55;;;;;;;16.95;12.30;;;;;;;;;;5030035;28;20079;-74
2022/10/14 01:40:24;;;;;;;15.63;12.75;;;;;;;;;;5011644;28;20049;-74
2022/10/14 01:42:50;;;;;;;17.55;11.50;;;;;;;;;;5014330;28;20940;-78
2022/10/14 01:45:19;;;;;;;16.75;12.38;;;;;;;;;;5015599;28;20027;-78
2022/10/14 01:47:47;;;;;;;13.80;11.48;;;;;;;;;;5014567;28;20090;-78
2022/10/14 01:50:15;;;;;;;20.20;11.55;;;;;;;;;;5009739;28;20035;-77
2022/10/14 01:52:46;;;;;;;15.23;11.10;;;;;;;;;;5015025;28;20013;-78
2022/10/14 01:55:14;;;;;;;14.05;11.75;;;;;;;;;;5017017;28;20031;-77
2022/10/14 01:57:40;;;;;;;13.88;10.07;;;;;;;;;;5014593;28;20135;-77
2022/10/14 02:00:06;;;;;;;13.63;10.35;;;;;;;;;;5015443;28;20008;-77
2022/10/14 02:02:34;;;;;;;13.68;10.70;;;;;;;;;;5032790;28;21178;-77
2022/10/14 02:04:59;;;;;;;12.73;10.85;;;;;;;;;;5014719;28;20020;-73
2022/10/14 02:07:28;;;;;;;11.50;10.10;;;;;;;;;;5033912;28;20898;-73
2022/10/14 02:10:01;;;;;;;12.25;9.50;;;;;;;;;;5031930;28;20077;-74
2022/10/14 02:12:26;;;;;;;14.55;10.20;;;;;;;;;;5016486;28;20851;-74
2022/10/14 02:14:51;;;;;;;14.13;9.80;;;;;;;;;;5017540;28;20023;-74
2022/10/14 02:17:23;;;;;;;11.93;10.17;;;;;;;;;;5016233;28;20281;-73
2022/10/14 02:20:07;;;;;;;16.70;10.18;;;;;;;;;;5030223;28;20295;-73
2022/10/14 02:22:36;;;;;;;17.05;10.48;;;;;;;;;;5010704;28;20068;-73
2022/10/14 02:25:25;;;;;;;11.55;9.48;;;;;;;;;;5008890;28;20082;-73
2022/10/14 02:27:51;;;;;;;11.13;9.55;;;;;;;;;;5021836;28;20036;-73
2022/10/14 02:30:16;;;;;;;10.50;8.00;;;;;;;;;;5033154;28;20891;-73
2022/10/14 02:32:42;;;;;;;17.02;10.55;;;;;;;;;;5033616;28;20063;-73
2022/10/14 02:35:09;;;;;;;10.55;8.18;;;;;;;;;;5029977;28;20079;-73
2022/10/14 02:37:36;;;;;;;12.30;8.25;;;;;;;;;;5016218;28;20276;-73
2022/10/14 02:40:22;;;;;;;14.95;8.95;;;;;;;;;;5033033;28;20024;-75
2022/10/14 02:42:47;;;;;;;9.00;7.68;;;;;;;;;;5027452;28;20017;-74
2022/10/14 02:45:13;;;;;;;12.25;8.65;;;;;;;;;;5031998;28;20186;-74
2022/10/14 02:47:38;;;;;;;11.60;8.80;;;;;;;;;;5031549;28;20131;-74
2022/10/14 02:50:04;;;;;;;10.40;7.88;;;;;;;;;;5015211;28;20841;-74
2022/10/14 02:52:29;;;;;;;8.80;7.88;;;;;;;;;;5039402;28;20025;-75
2022/10/14 02:54:54;;;;;;;9.98;7.07;;;;;;;;;;5038049;28;20130;-75
2022/10/14 02:57:19;;;;;;;12.40;8.27;;;;;;;;;;5032278;28;20020;-75
2022/10/14 02:59:45;;;;;;;10.10;7.85;;;;;;;;;;5012681;28;20311;-74
2022/10/14 03:02:10;;;;;;;9.23;8.02;;;;;;;;;;5028981;28;20935;-74
2022/10/14 03:04:35;;;;;;;12.63;8.10;;;;;;;;;;5015845;28;20024;-73
2022/10/14 03:07:01;;;;;;;9.00;7.23;;;;;;;;;;5046080;28;20266;-74
2022/10/14 03:09:26;;;;;;;10.35;7.25;;;;;;;;;;5031358;28;20299;-74
2022/10/14 03:11:51;;;;;;;8.95;7.47;;;;;;;;;;5017837;28;20028;-74
2022/10/14 03:14:17;;;;;;;7.87;6.77;;;;;;;;;;5034904;28;20896;-74
2022/10/14 03:16:42;;;;;;;9.40;7.53;;;;;;;;;;5033440;28;21135;-74
2022/10/14 03:19:08;;;;;;;10.25;7.75;;;;;;;;;;5013029;28;20033;-75
2022/10/14 03:21:33;;;;;;;7.85;6.95;;;;;;;;;;5021827;28;20016;-74
2022/10/14 03:24:00;;;;;;;13.30;8.07;;;;;;;;;;5013777;28;20020;-74
2022/10/14 03:26:25;;;;;;;10.23;7.55;;;;;;;;;;5008796;28;20035;-75
2022/10/14 03:28:51;;;;;;;12.93;7.38;;;;;;;;;;5031037;28;20124;-76
2022/10/14 03:31:16;;;;;;;9.23;7.37;;;;;;;;;;5041153;28;20082;-75
2022/10/14 03:33:41;;;;;;;12.65;6.28;;;;;;;;;;5034268;28;20281;-75
2022/10/14 03:36:06;;;;;;;8.53;6.77;;;;;;;;;;5022503;28;20028;-76
2022/10/14 03:38:31;;;;;;;7.95;7.15;;;;;;;;;;5041585;28;20308;-78
2022/10/14 03:40:57;;;;;;;11.75;6.82;;;;;;;;;;5004807;28;20882;-78
2022/10/14 03:43:22;;;;;;;9.15;7.05;;;;;;;;;;5013297;28;20028;-75
2022/10/14 03:45:47;;;;;;;8.25;7.45;;;;;;;;;;5009562;28;20017;-78
2022/10/14 03:48:12;;;;;;;12.35;6.97;;;;;;;;;;5040616;28;20032;-75
2022/10/14 03:50:38;;;;;;;10.80;7.13;;;;;;;;;;5002732;28;20903;-76
2022/10/14 03:53:03;;;;;;;14.87;8.43;;;;;;;;;;5020346;28;20120;-76
2022/10/14 03:55:28;;;;;;;8.98;7.55;;;;;;;;;;5017784;28;20277;-76
2022/10/14 03:57:54;;;;;;;7.88;6.97;;;;;;;;;;5030735;28;20123;-75
2022/10/14 04:00:19;;;;;;;9.15;7.20;;;;;;;;;;5032849;28;20940;-75
2022/10/14 04:02:44;;;;;;;11.20;7.65;;;;;;;;;;5012904;28;20074;-75
2022/10/14 04:05:10;;;;;;;9.60;6.80;;;;;;;;;;5030248;28;20164;-75
2022/10/14 04:07:35;;;;;;;12.70;7.60;;;;;;;;;;5013735;28;20267;-76
2022/10/14 04:10:00;;;;;;;8.43;7.28;;;;;;;;;;5033344;28;20028;-75
2022/10/14 04:12:26;;;;;;;17.80;7.45;;;;;;;;;;5014051;28;20023;-75
2022/10/14 04:14:51;;;;;;;8.32;7.53;;;;;;;;;;5015246;28;20271;-75
2022/10/14 04:17:17;;;;;;;10.48;7.65;;;;;;;;;;5013245;28;20127;-76
2022/10/14 04:19:42;;;;;;;9.93;7.28;;;;;;;;;;5013974;28;20028;-75
2022/10/14 04:22:08;;;;;;;10.43;8.20;;;;;;;;;;5013735;28;20052;-75
2022/10/14 04:24:33;;;;;;;9.85;7.68;;;;;;;;;;5013586;28;20283;-76
2022/10/14 04:26:58;;;;;;;9.67;8.67;;;;;;;;;;5013663;28;20029;-75
2022/10/14 04:29:24;;;;;;;12.30;8.60;;;;;;;;;;5012337;28;20275;-76
2022/10/14 04:31:49;;;;;;;13.95;8.60;;;;;;;;;;5013329;28;20127;-76
2022/10/14 04:34:14;;;;;;;10.93;7.83;;;;;;;;;;5012400;28;20043;-75
2022/10/14 04:36:40;;;;;;;9.88;8.10;;;;;;;;;;5030590;28;20404;-74
2022/10/14 04:39:05;;;;;;;11.63;8.45;;;;;;;;;;5014306;28;20071;-76
2022/10/14 04:41:30;;;;;;;9.48;8.40;;;;;;;;;;5017078;28;20822;-80
2022/10/14 04:43:55;;;;;;;10.52;8.00;;;;;;;;;;5017831;28;20012;-81
2022/10/14 04:46:21;;;;;;;13.32;8.88;;;;;;;;;;5028384;28;20058;-80
2022/10/14 04:48:46;;;;;;;9.32;8.43;;;;;;;;;;5036487;28;20752;-81
2022/10/14 04:51:12;;;;;;;13.00;9.18;;;;;;;;;;5027235;28;20085;-80
2022/10/14 04:53:37;;;;;;;11.98;9.93;;;;;;;;;;5023398;28;20017;-80
2022/10/14 04:56:02;;;;;;;10.65;8.60;;;;;;;;;;5037736;28;20020;-80
2022/10/14 04:58:27;;;;;;;10.63;8.70;;;;;;;;;;5045035;28;20494;-73
2022/10/14 05:00:54;;;;;;;14.10;8.17;;;;;;;;;;5087673;28;20570;-71
2022/10/14 05:03:19;;;;;;;10.27;8.45;;;;;;;;;;5082655;28;20290;-74
2022/10/14 05:05:45;;;;;;;11.20;9.18;;;;;;;;;;5054683;28;20544;-74
2022/10/14 05:08:10;;;;;;;8.85;7.40;;;;;;;;;;5085175;28;20039;-74
2022/10/14 05:10:35;;;;;;;11.95;8.80;;;;;;;;;;5085160;28;20025;-75
2022/10/14 05:13:00;;;;;;;13.13;8.82;;;;;;;;;;5072169;28;20047;-71
2022/10/14 05:15:26;;;;;;;9.90;8.00;;;;;;;;;;5072378;28;20021;-76
2022/10/14 05:17:51;;;;;;;12.77;8.80;;;;;;;;;;5051193;28;20066;-71
2022/10/14 05:20:16;;;;;;;9.13;7.80;;;;;;;;;;5054084;28;20271;-74
2022/10/14 05:22:42;;;;;;;12.90;9.07;;;;;;;;;;5052730;28;20271;-75
2022/10/14 05:25:07;;;;;;;10.50;9.40;;;;;;;;;;5087718;28;20373;-74
2022/10/14 05:27:33;;;;;;;9.85;8.85;;;;;;;;;;5053890;28;20144;-78
2022/10/14 05:29:58;;;;;;;9.55;8.57;;;;;;;;;;5070043;28;20052;-75
2022/10/14 05:32:23;;;;;;;11.23;8.95;;;;;;;;;;5072314;28;20021;-81
2022/10/14 05:34:49;;;;;;;11.47;8.37;;;;;;;;;;5069117;28;20053;-80
2022/10/14 05:37:14;;;;;;;9.67;8.67;;;;;;;;;;5070179;28;20855;-81
2022/10/14 05:39:39;;;;;;;13.20;9.00;;;;;;;;;;5071588;28;20949;-82
2022/10/14 05:42:04;;;;;;;11.83;9.13;;;;;;;;;;5071715;28;20621;-82
2022/10/14 05:44:30;;;;;;;11.20;8.68;;;;;;;;;;5053725;28;20283;-83
2022/10/14 05:46:55;;;;;;;12.00;9.75;;;;;;;;;;5031248;28;20064;-74
2022/10/14 05:49:20;;;;;;;11.88;9.15;;;;;;;;;;5047997;28;20021;-75
2022/10/14 05:51:45;;;;;;;9.50;8.10;;;;;;;;;;5045278;28;20036;-76
2022/10/14 05:54:11;;;;;;;12.10;9.27;;;;;;;;;;5045205;28;20286;-75
2022/10/14 05:56:36;;;;;;;8.55;7.20;;;;;;;;;;5049920;28;20024;-76
2022/10/14 05:59:02;;;;;;;14.68;9.30;;;;;;;;;;5031124;28;20078;-76
2022/10/14 06:01:27;;;;;;;12.75;8.75;;;;;;;;;;5033386;28;20485;-77
2022/10/14 06:03:52;;;;;;;15.17;8.97;;;;;;;;;;5033429;28;20178;-79
2022/10/14 06:06:18;;;;;;;9.38;8.48;;;;;;;;;;5031148;28;20267;-79
2022/10/14 06:08:43;;;;;;;10.73;8.57;;;;;;;;;;5031878;28;20443;-79
2022/10/14 06:11:09;;;;;;;11.75;9.55;;;;;;;;;;5049333;28;20112;-79
2022/10/14 06:13:34;;;;;;;18.67;8.45;;;;;;;;;;5028121;28;20051;-79
2022/10/14 06:16:04;;;;;;;11.10;8.80;;;;;;;;;;5025869;28;20106;-78
2022/10/14 06:18:29;;;;;;;9.07;7.85;;;;;;;;;;5027924;28;20016;-79
2022/10/14 06:20:54;;;;;;;9.82;8.23;;;;;;;;;;5024353;28;20078;-79
2022/10/14 06:23:20;;;;;;;12.30;8.98;;;;;;;;;;5020835;28;20017;-78
2022/10/14 06:25:45;;;;;;;12.02;9.32;;;;;;;;;;5016532;28;20016;-80
2022/10/14 06:28:10;;;;;;;11.23;8.85;;;;;;;;;;5015070;28;20023;-81
2022/10/14 06:30:36;;;;;;;9.55;8.43;;;;;;;;;;5034903;28;20534;-81
2022/10/14 06:33:01;;;;;;;12.45;9.90;;;;;;;;;;5049399;28;20020;-75
2022/10/14 06:35:26;;;;;;;10.07;8.18;;;;;;;;;;5017418;28;20106;-81
2022/10/14 06:37:51;;;;;;;11.40;8.20;;;;;;;;;;5016513;28;20032;-78
2022/10/14 06:40:17;;;;;;;14.68;9.15;;;;;;;;;;5016717;28;20011;-79
2022/10/14 06:42:42;;;;;;;13.68;9.13;;;;;;;;;;5014885;28;20016;-79
2022/10/14 06:45:08;;;;;;;10.18;8.45;;;;;;;;;;5014297;28;20030;-79
2022/10/14 06:47:33;;;;;;;10.85;8.07;;;;;;;;;;5014288;28;20094;-79
2022/10/14 06:49:58;;;;;;;11.98;7.90;;;;;;;;;;5020736;28;20016;-79
2022/10/14 06:52:23;;;;;;;10.40;8.63;;;;;;;;;;5032467;28;20027;-79
2022/10/14 06:54:49;;;;;;;13.45;8.85;;;;;;;;;;5021969;28;20025;-79
2022/10/14 06:57:14;;;;;;;16.15;8.63;;;;;;;;;;5014877;28;20885;-75
2022/10/14 06:59:39;;;;;;;11.38;7.93;;;;;;;;;;5030214;28;20086;-74
2022/10/14 07:02:05;;;;;;;10.85;8.52;;;;;;;;;;5016248;28;20127;-73
2022/10/14 07:04:30;;;;;;;8.80;7.40;;;;;;;;;;5034994;28;20020;-77
2022/10/14 07:06:57;;;;;;;16.15;8.57;;;;;;;;;;5016887;28;20841;-79
2022/10/14 07:09:22;;;;;;;9.25;8.25;;;;;;;;;;5017450;28;20119;-78
2022/10/14 07:11:47;;;;;;;10.30;7.32;;;;;;;;;;5010479;28;20023;-82
2022/10/14 07:14:13;;;;;;;10.85;8.95;;;;;;;;;;5014205;28;20021;-79
2022/10/14 07:16:38;;;;;;;11.77;7.38;;;;;;;;;;5015403;28;20017;-78
2022/10/14 07:19:03;;;;;;;9.70;7.38;;;;;;;;;;5030922;28;20023;-78
2022/10/14 07:21:29;;;;;;;11.07;7.20;;;;;;;;;;5015070;28;20139;-78
2022/10/14 07:23:54;;;;;;;8.82;7.57;;;;;;;;;;5014070;28;20801;-81
2022/10/14 07:26:20;;;;;;;10.00;7.70;;;;;;;;;;5013778;28;20762;-80
2022/10/14 07:28:45;;;;;;;11.40;7.53;;;;;;;;;;5016289;28;20024;-79
2022/10/14 07:31:11;;;;;;;10.98;7.28;;;;;;;;;;5016658;28;20017;-76
2022/10/14 07:33:37;;;;;;;12.45;8.05;;;;;;;;;;5034072;28;20024;-79
2022/10/14 07:36:08;;;;;;;10.27;7.78;;;;;;;;;;4999495;28;20156;-79
2022/10/14 07:38:33;;;;;;;9.38;7.63;;;;;;;;;;5029724;28;20020;-76
2022/10/14 07:41:00;;;;;;;9.27;6.75;;;;;;;;;;5010095;28;20075;-77
2022/10/14 07:43:25;;;;;;;10.25;7.57;;;;;;;;;;5024624;28;20869;-77
2022/10/14 07:45:51;;;;;;;7.60;6.55;;;;;;;;;;5044877;28;20028;-76
2022/10/14 07:48:16;;;;;;;7.88;6.50;;;;;;;;;;5012763;28;20293;-79
2022/10/14 07:50:41;;;;;;;8.68;6.65;;;;;;;;;;5018004;28;20032;-80
2022/10/14 07:53:06;;;;;;;8.35;6.63;;;;;;;;;;5016685;28;20037;-77
2022/10/14 07:55:32;;;;;;;16.42;6.97;;;;;;;;;;5018966;28;20021;-78
2022/10/14 07:57:57;;;;;;;10.73;7.53;;;;;;;;;;5016008;28;20017;-77
2022/10/14 08:00:22;;;;;;;16.92;7.68;;;;;;;;;;5013084;28;20341;-78
2022/10/14 08:02:47;;;;;;;10.38;7.15;;;;;;;;;;5026249;28;20904;-78
2022/10/14 08:05:13;;;;;;;13.87;7.87;;;;;;;;;;5014318;28;20016;-79
2022/10/14 08:07:38;;;;;;;9.20;7.47;;;;;;;;;;5014465;28;20259;-79
2022/10/14 08:10:03;;;;;;;16.63;7.20;;;;;;;;;;5013418;28;20052;-78
2022/10/14 08:12:29;;;;;;;10.27;7.38;;;;;;;;;;5009894;28;20416;-78
2022/10/14 08:14:55;;;;;;;16.65;7.13;;;;;;;;;;5022832;28;20785;-79
2022/10/14 08:17:20;;;;;;;8.57;7.40;;;;;;;;;;5018730;28;20023;-79
2022/10/14 08:19:45;;;;;;;9.03;7.20;;;;;;;;;;5009170;28;20013;-79
2022/10/14 08:22:11;;;;;;;9.13;7.10;;;;;;;;;;5029754;28;20282;-78
2022/10/14 08:24:36;;;;;;;12.27;6.43;;;;;;;;;;5010538;28;20019;-80
2022/10/14 08:27:01;;;;;;;9.93;6.70;;;;;;;;;;5030411;28;20293;-79
2022/10/14 08:29:26;;;;;;;7.70;6.65;;;;;;;;;;5012529;28;21188;-80
2022/10/14 08:31:54;;;;;;;10.32;6.68;;;;;;;;;;5012237;28;20875;-80
2022/10/14 08:34:20;;;;;;;9.43;6.45;;;;;;;;;;5006915;28;20114;-80
2022/10/14 08:36:46;;;;;;;7.97;6.32;;;;;;;;;;5022941;28;20035;-80
2022/10/14 08:39:12;;;;;;;18.58;7.10;;;;;;;;;;5011945;28;20887;-82
2022/10/14 08:41:56;;;;;;;12.18;6.38;;;;;;;;;;5024201;28;20036;-79
2022/10/14 08:44:24;;;;;;;8.25;6.03;;;;;;;;;;5032915;28;20029;-80
2022/10/14 08:46:50;;;;;;;7.28;5.18;;;;;;;;;;5028418;28;20230;-81
2022/10/14 08:49:18;;;;;;;8.93;6.00;;;;;;;;;;5034541;28;20021;-75
2022/10/14 08:51:45;;;;;;;8.00;5.88;;;;;;;;;;5033205;28;20036;-78
2022/10/14 08:54:14;;;;;;;10.32;6.82;;;;;;;;;;5005991;28;20070;-76
2022/10/14 08:56:41;;;;;;;8.13;6.13;;;;;;;;;;5011948;28;20021;-76
2022/10/14 08:59:12;;;;;;;9.80;6.82;;;;;;;;;;5013072;28;20017;-76
2022/10/14 09:02:03;;;;;;;9.38;5.75;;;;;;;;;;5013178;28;20036;-76
2022/10/14 09:04:32;;;;;;;10.68;5.82;;;;;;;;;;5028278;28;20060;-77
2022/10/14 09:06:58;;;;;;;8.52;6.30;;;;;;;;;;5057664;28;20020;-76
2022/10/14 09:09:26;;;;;;;7.88;5.22;;;;;;;;;;5015646;28;20059;-72
2022/10/14 09:12:03;;;;;;;9.77;6.05;;;;;;;;;;5010718;28;20028;-78
2022/10/14 09:14:30;;;;;;;9.48;6.45;;;;;;;;;;5033438;28;20017;-78
2022/10/14 09:16:58;;;;;;;8.00;6.20;;;;;;;;;;5033242;28;20021;-74
2022/10/14 09:19:31;;;;;;;9.50;6.32;;;;;;;;;;5020511;28;20158;-75
2022/10/14 09:21:57;;;;;;;8.98;6.85;;;;;;;;;;5033386;28;20187;-75
2022/10/14 09:24:27;;;;;;;12.15;6.28;;;;;;;;;;5026777;28;20020;-74
2022/10/14 09:26:57;;;;;;;13.85;7.60;;;;;;;;;;5049474;28;20023;-74
2022/10/14 09:29:25;;;;;;;11.32;6.93;;;;;;;;;;5051687;28;20020;-73
2022/10/14 09:31:50;;;;;;;8.35;6.70;;;;;;;;;;5059719;28;20024;-74
2022/10/14 09:34:18;;;;;;;8.32;7.25;;;;;;;;;;5077147;28;20066;-75
2022/10/14 09:36:44;;;;;;;11.07;7.38;;;;;;;;;;5075325;28;20028;-74
2022/10/14 09:39:10;;;;;;;8.50;6.90;;;;;;;;;;5072443;28;20375;-73
2022/10/14 09:41:36;;;;;;;15.55;7.32;;;;;;;;;;5054052;28;20046;-77
2022/10/14 09:44:21;;;;;;;9.35;7.25;;;;;;;;;;5057644;28;20410;-81
2022/10/14 09:47:06;;;;;;;9.57;7.85;;;;;;;;;;5056949;28;20027;-78
2022/10/14 09:49:34;;;;;;;10.90;8.50;;;;;;;;;;5073541;28;20020;-77
2022/10/14 09:52:01;;;;;;;10.60;8.73;;;;;;;;;;5060559;28;20016;-78
2022/10/14 09:54:27;;;;;;;13.13;8.30;;;;;;;;;;5073319;28;20494;-78
2022/10/14 09:57:01;;;;;;;10.75;8.70;;;;;;;;;;5059885;28;20013;-82
2022/10/14 09:59:27;;;;;;;13.88;9.50;;;;;;;;;;5076964;28;20082;-75
2022/10/14 10:01:56;;;;;;;11.40;8.70;;;;;;;;;;5075550;28;20468;-74
2022/10/14 10:04:30;;;;;;;9.85;8.40;;;;;;;;;;5077449;28;20029;-78
2022/10/14 10:06:56;;;;;;;9.90;7.93;;;;;;;;;;5056977;28;20116;-79
2022/10/14 10:09:21;;;;;;;11.40;9.15;;;;;;;;;;5074989;28;20124;-77
2022/10/14 10:11:47;;;;;;;11.35;7.65;;;;;;;;;;5063982;28;20028;-78
2022/10/14 10:14:15;;;;;;;13.38;9.05;;;;;;;;;;5074526;28;20025;-78
2022/10/14 10:16:40;;;;;;;9.50;8.35;;;;;;;;;;5074465;28;20017;-80
2022/10/14 10:19:26;;;;;;;12.77;8.23;;;;;;;;;;5059146;28;20043;-81
2022/10/14 10:21:51;;;;;;;10.07;8.23;;;;;;;;;;5057560;28;20103;-80
2022/10/14 10:24:19;;;;;;;9.70;8.70;;;;;;;;;;5074042;28;20103;-81
2022/10/14 10:26:45;;;;;;;8.90;7.15;;;;;;;;;;5089307;28;20350;-78
2022/10/14 10:29:22;;;;;;;14.45;8.43;;;;;;;;;;5065734;28;20469;-77
2022/10/14 10:32:05;;;;;;;10.93;7.32;;;;;;;;;;5073300;28;20025;-82
2022/10/14 10:34:55;;;;;;;11.75;8.27;;;;;;;;;;5040759;28;20028;-76
2022/10/14 10:37:25;;;;;;;10.48;7.53;;;;;;;;;;5085197;28;20025;-76
2022/10/14 10:40:07;;;;;;;9.15;7.63;;;;;;;;;;5073467;28;20013;-78
2022/10/14 10:42:38;;;;;;;7.82;6.47;;;;;;;;;;5073681;28;20020;-79
2022/10/14 10:45:20;;;;;;;9.93;6.40;;;;;;;;;;5049867;28;20041;-78
2022/10/14 10:47:53;;;;;;;9.65;7.25;;;;;;;;;;5049797;28;20023;-78
2022/10/14 10:50:21;;;;;;;8.50;6.22;;;;;;;;;;5070553;28;20020;-78
2022/10/14 10:52:50;;;;;;;7.65;6.85;;;;;;;;;;5072825;28;20103;-79
2022/10/14 10:55:21;;;;;;;11.05;6.43;;;;;;;;;;5071970;28;20095;-79
2022/10/14 10:57:51;;;;;;;9.90;6.72;;;;;;;;;;5072747;28;20032;-79
2022/10/14 11:00:19;;;;;;;9.73;6.32;;;;;;;;;;5073609;28;20025;-79
2022/10/14 11:03:03;;;;;;;9.02;6.60;;;;;;;;;;5074365;28;20028;-79
2022/10/14 11:05:28;;;;;;;9.55;7.03;;;;;;;;;;5073148;28;20021;-79
2022/10/14 11:13:49;;;;;;;7.25;6.45;;;;;;;;;;5064140;28;20544;-77
2022/10/14 11:16:28;;;;;;;10.27;6.05;;;;;;;;;;5073103;28;20013;-77
2022/10/14 11:19:01;;;;;;;9.25;6.20;;;;;;;;;;5073087;28;20020;-79
2022/10/14 11:21:50;;;;;;;9.98;6.75;;;;;;;;;;5073461;28;20024;-78
2022/10/14 11:24:33;;;;;;;7.43;6.18;;;;;;;;;;5067824;28;20095;-78
2022/10/14 11:27:09;;;;;;;11.50;6.30;;;;;;;;;;5072087;28;20504;-79
2022/10/14 11:29:55;;;;;;;9.85;6.78;;;;;;;;;;5071227;28;20064;-77
2022/10/14 11:32:20;;;;;;;11.45;7.50;;;;;;;;;;5073432;28;20020;-79
2022/10/14 11:35:04;;;;;;;7.55;6.75;;;;;;;;;;5073021;28;20030;-72
2022/10/14 11:37:45;;;;;;;7.80;6.25;;;;;;;;;;5073320;28;20086;-82
2022/10/14 11:40:36;;;;;;;12.23;6.88;;;;;;;;;;5066931;28;20036;-75
2022/10/14 11:43:21;;;;;;;8.75;6.25;;;;;;;;;;5025303;28;20032;-82
2022/10/14 11:46:00;;;;;;;7.35;6.65;;;;;;;;;;5075422;28;20020;-80
2022/10/14 11:48:28;;;;;;;7.82;7.03;;;;;;;;;;5074351;28;20017;-81
2022/10/14 11:50:55;;;;;;;8.95;6.57;;;;;;;;;;5075605;28;20374;-81
2022/10/14 11:53:34;;;;;;;10.00;6.22;;;;;;;;;;5073553;28;20051;-77
2022/10/14 11:56:14;;;;;;;8.52;6.18;;;;;;;;;;5075388;28;20052;-78
2022/10/14 11:58:42;;;;;;;9.68;5.82;;;;;;;;;;5058654;28;20118;-78
2022/10/14 12:01:08;;;;;;;8.57;6.50;;;;;;;;;;5076121;28;20016;-78
2022/10/14 12:03:36;;;;;;;6.72;5.85;;;;;;;;;;5069680;28;20015;-78
2022/10/14 12:06:04;;;;;;;7.78;5.47;;;;;;;;;;5072781;28;20023;-78
2022/10/14 12:08:30;;;;;;;6.00;4.90;;;;;;;;;;5070167;28;20099;-76
2022/10/14 12:11:01;;;;;;;5.17;4.47;;;;;;;;;;5071768;28;20103;-79
2022/10/14 12:13:46;;;;;;;8.15;5.55;;;;;;;;;;5066250;28;20776;-76
2022/10/14 12:16:13;;;;;;;8.48;4.43;;;;;;;;;;5071751;28;20044;-76
2022/10/14 12:18:38;;;;;;;9.50;5.03;;;;;;;;;;5072693;28;20359;-75
2022/10/14 12:21:04;;;;;;;6.40;4.25;;;;;;;;;;5071827;28;20082;-74
2022/10/14 12:23:29;;;;;;;6.43;4.65;;;;;;;;;;5071783;28;20021;-74
2022/10/14 12:26:00;;;;;;;5.97;4.33;;;;;;;;;;5072345;28;20480;-77
2022/10/14 12:28:25;;;;;;;6.78;5.18;;;;;;;;;;5070991;28;20262;-74
2022/10/14 12:30:50;;;;;;;11.55;5.57;;;;;;;;;;5088399;28;20035;-74
2022/10/14 12:33:16;;;;;;;6.03;4.60;;;;;;;;;;5072098;28;20028;-74
2022/10/14 12:35:44;;;;;;;6.43;4.47;;;;;;;;;;5071648;28;20349;-75
2022/10/14 12:38:10;;;;;;;6.80;4.95;;;;;;;;;;5068745;28;20017;-78
2022/10/14 12:40:35;;;;;;;7.18;4.82;;;;;;;;;;5069759;28;20069;-78
2022/10/14 12:43:12;;;;;;;5.57;4.03;;;;;;;;;;5053441;28;20017;-78
2022/10/14 12:45:45;;;;;;;6.05;4.90;;;;;;;;;;5072094;28;20078;-78
2022/10/14 12:48:19;;;;;;;6.15;4.95;;;;;;;;;;5072448;28;20024;-77
2022/10/14 12:50:45;;;;;;;8.07;4.22;;;;;;;;;;5084105;28;20027;-76
2022/10/14 12:53:30;;;;;;;6.32;4.07;;;;;;;;;;5055931;28;20032;-79
2022/10/14 12:56:00;;;;;;;6.03;4.70;;;;;;;;;;5052614;28;20020;-77
2022/10/14 12:58:28;;;;;;;7.28;4.28;;;;;;;;;;5052623;28;20020;-78
2022/10/14 13:00:56;;;;;;;6.63;4.97;;;;;;;;;;5073501;28;20027;-77
2022/10/14 13:03:25;;;;;;;6.68;4.80;;;;;;;;;;5071138;28;20013;-77
2022/10/14 13:05:51;;;;;;;5.80;4.03;;;;;;;;;;5071144;28;20416;-76
2022/10/14 13:08:19;;;;;;;5.30;3.95;;;;;;;;;;5044311;28;20027;-79
2022/10/14 13:10:49;;;;;;;6.35;4.88;;;;;;;;;;5071759;28;20027;-73
2022/10/14 13:13:33;;;;;;;4.85;3.95;;;;;;;;;;5065290;28;20475;-78
2022/10/14 13:15:58;;;;;;;8.93;5.15;;;;;;;;;;5071998;28;20021;-75
2022/10/14 13:18:30;;;;;;;6.72;4.85;;;;;;;;;;5071636;28;20386;-74
2022/10/14 13:20:55;;;;;;;4.88;3.22;;;;;;;;;;5071785;28;20036;-76
2022/10/14 13:23:54;;;;;;;5.53;3.70;;;;;;;;;;5070288;28;20427;-75
2022/10/14 13:26:20;;;;;;;5.78;3.78;;;;;;;;;;5067115;28;20025;-76
2022/10/14 13:29:00;;;;;;;11.40;4.13;;;;;;;;;;5053682;28;20024;-82
2022/10/14 13:31:30;;;;;;;5.15;4.10;;;;;;;;;;5087869;28;20321;-82
2022/10/14 13:34:04;;;;;;;10.18;4.32;;;;;;;;;;5072278;28;20020;-78
2022/10/14 13:36:35;;;;;;;5.15;3.97;;;;;;;;;;5076898;28;20052;-75
2022/10/14 13:39:01;;;;;;;6.60;4.63;;;;;;;;;;5058886;28;20013;-75
2022/10/14 13:41:27;;;;;;;5.82;4.63;;;;;;;;;;5071428;28;20017;-75
2022/10/14 13:43:54;;;;;;;6.07;4.88;;;;;;;;;;5050028;28;20025;-78
2022/10/14 13:46:26;;;;;;;6.18;4.15;;;;;;;;;;5052988;28;20031;-77
2022/10/14 13:48:54;;;;;;;8.10;4.90;;;;;;;;;;5069605;28;20071;-74
2022/10/14 13:51:24;;;;;;;12.85;5.75;;;;;;;;;;5071308;28;20467;-75
2022/10/14 13:53:53;;;;;;;5.55;4.47;;;;;;;;;;5053414;28;20103;-74
2022/10/14 13:56:50;;;;;;;7.03;4.82;;;;;;;;;;5049820;28;20016;-78
2022/10/14 13:59:22;;;;;;;6.43;4.93;;;;;;;;;;5047230;28;20390;-78
2022/10/14 14:01:47;;;;;;;7.13;4.80;;;;;;;;;;5051699;28;20025;-78
2022/10/14 14:04:19;;;;;;;6.47;5.03;;;;;;;;;;5053220;28;20364;-77
2022/10/14 14:06:45;;;;;;;11.50;6.13;;;;;;;;;;5070853;28;20024;-75
2022/10/14 14:09:17;;;;;;;5.53;5.03;;;;;;;;;;5092605;28;20028;-79
2022/10/14 14:11:45;;;;;;;6.68;5.25;;;;;;;;;;5039681;28;20021;-80
2022/10/14 14:14:18;;;;;;;4.25;3.15;;;;;;;;;;5054279;28;20040;-79
2022/10/14 14:16:54;;;;;;;4.28;2.40;;;;;;;;;;5081665;28;20479;-76
2022/10/14 14:19:32;;;;;;;4.20;2.38;;;;;;;;;;5089772;28;20111;-75
2022/10/14 14:22:06;;;;;;;2.85;1.40;;;;;;;;;;5076245;28;20374;-78
2022/10/14 14:24:33;;;;;;;3.72;1.42;;;;;;;;;;5074846;28;20020;-77
2022/10/14 14:26:58;;;;;;;2.55;1.33;;;;;;;;;;5056606;28;20421;-79
2022/10/14 14:29:25;;;;;;;2.78;1.55;;;;;;;;;;5033662;28;20012;-80
2022/10/14 14:31:51;;;;;;;2.40;1.30;;;;;;;;;;5021225;28;20008;-81
2022/10/14 14:34:17;;;;;;;2.30;1.30;;;;;;;;;;5041260;28;20025;-83
2022/10/14 14:36:43;;;;;;;2.60;1.45;;;;;;;;;;5058632;28;20032;-68
2022/10/14 14:39:24;;;;;;;3.28;1.30;;;;;;;;;;5059494;28;20036;-67
2022/10/14 14:41:51;;;;;;;2.42;1.55;;;;;;;;;;5074227;28;20052;-66
2022/10/14 14:44:18;;;;;;;2.85;1.40;;;;;;;;;;5073588;28;20022;-68
2022/10/14 14:46:44;;;;;;;9.10;2.05;;;;;;;;;;5074302;28;20020;-66